Søk

i0000011 1

23113322_1490371274380231_2044961536_o

23112985_1490371271046898_1954502137_o

AD492CBE-7F7E-45F3-BB5D-BDB4D24C8D00

37537838_1435646143241462_673763438257766400_n
 
METAR
2018/11/21 16:50 ENCN 211650Z 03013KT 9999 -RA FEW007 BKN018 02/01 Q1032
TAF
2018/11/21 15:36 TAF TAF ENCN 211400Z 2115/2122 05010KT 9999 -RA SCT008 BKN012 TEMPO 2115/2122 SCT012 BKN018
LN-KFK
Operativ VFR-natt
VFR dag
07:41 - 16:46
Brannvakt
Inaktiv
Banner
Banner
Banner
Banner
Banner